createdAt,value
2023-01-19T00:00:49.754Z,90.37
2023-01-19T00:03:18.025Z,89.41
2023-01-19T00:05:44.937Z,89.39
2023-01-19T00:08:15.035Z,89.95
2023-01-19T00:10:53.225Z,90.12
2023-01-19T00:13:19.726Z,90.20
2023-01-19T00:15:46.260Z,88.77
2023-01-19T00:18:12.922Z,88.01
2023-01-19T00:20:40.692Z,88.01
2023-01-19T00:23:08.308Z,87.72
2023-01-19T00:25:35.850Z,88.18
2023-01-19T00:28:02.392Z,88.59
2023-01-19T00:30:29.675Z,89.00
2023-01-19T00:32:56.360Z,88.57
2023-01-19T00:35:22.851Z,90.86
2023-01-19T00:37:49.288Z,92.74
2023-01-19T00:40:16.077Z,91.99
2023-01-19T00:42:48.126Z,91.63
2023-01-19T00:45:20.546Z,91.01
2023-01-19T00:47:48.455Z,91.58
2023-01-19T00:50:16.812Z,91.64
2023-01-19T00:52:44.515Z,93.14
2023-01-19T00:55:13.398Z,93.69
2023-01-19T00:57:40.597Z,93.33
2023-01-19T01:00:12.050Z,95.08
2023-01-19T01:02:40.258Z,91.67
2023-01-19T01:05:07.863Z,90.00
2023-01-19T01:07:40.549Z,89.84
2023-01-19T01:10:09.297Z,90.08
2023-01-19T01:12:36.872Z,90.47
2023-01-19T01:15:05.027Z,89.91
2023-01-19T01:17:31.904Z,88.82
2023-01-19T01:19:58.501Z,88.29
2023-01-19T01:22:25.025Z,88.11
2023-01-19T01:24:51.528Z,88.54
2023-01-19T01:27:18.120Z,89.51
2023-01-19T01:29:46.599Z,91.69
2023-01-19T01:32:16.818Z,91.94
2023-01-19T01:34:46.287Z,91.08
2023-01-19T01:37:12.671Z,90.80
2023-01-19T01:39:39.203Z,90.20
2023-01-19T01:42:16.548Z,90.24
2023-01-19T01:45:06.074Z,89.47
2023-01-19T01:47:44.268Z,89.50
2023-01-19T01:50:10.729Z,89.68
2023-01-19T01:53:06.832Z,89.33
2023-01-19T01:55:40.954Z,89.95
2023-01-19T01:58:09.862Z,89.41
2023-01-19T02:00:56.592Z,88.21
2023-01-19T02:03:25.458Z,89.28
2023-01-19T02:05:56.795Z,91.24
2023-01-19T02:08:56.462Z,91.70
2023-01-19T02:11:41.894Z,94.71
2023-01-19T02:14:08.295Z,95.71
2023-01-19T02:16:36.634Z,95.33
2023-01-19T02:19:05.203Z,94.31
2023-01-19T02:21:35.271Z,93.94
2023-01-19T02:24:03.136Z,92.86
2023-01-19T02:26:34.842Z,92.16
2023-01-19T02:29:08.466Z,91.30
2023-01-19T02:31:37.667Z,91.05
2023-01-19T02:34:05.992Z,91.06
2023-01-19T02:36:40.965Z,91.26
2023-01-19T02:39:10.019Z,90.80
2023-01-19T02:41:43.949Z,90.34
2023-01-19T02:44:12.578Z,90.00
2023-01-19T02:46:39.177Z,90.21
2023-01-19T02:49:05.561Z,90.25
2023-01-19T02:51:32.767Z,89.93
2023-01-19T02:54:20.820Z,89.42
2023-01-19T02:57:32.436Z,89.01
2023-01-19T03:00:21.042Z,89.36
2023-01-19T03:03:04.503Z,89.60
2023-01-19T03:05:40.424Z,89.00
2023-01-19T03:08:07.820Z,88.85
2023-01-19T03:10:51.354Z,89.15
2023-01-19T03:13:32.022Z,89.19
2023-01-19T03:16:13.457Z,89.65
2023-01-19T03:18:42.863Z,89.16
2023-01-19T03:21:13.282Z,89.45
2023-01-19T03:23:41.968Z,89.41
2023-01-19T03:26:13.955Z,88.95
2023-01-19T03:28:43.116Z,89.00
2023-01-19T03:31:15.177Z,88.77
2023-01-19T03:33:45.352Z,88.92
2023-01-19T03:36:19.528Z,88.47
2023-01-19T03:38:48.896Z,89.13
2023-01-19T03:41:18.813Z,89.41
2023-01-19T03:43:49.067Z,89.64
2023-01-19T03:46:19.304Z,89.69
2023-01-19T03:48:46.656Z,89.62
2023-01-19T03:51:14.542Z,89.21
2023-01-19T03:53:41.914Z,89.15
2023-01-19T03:56:20.181Z,89.76
2023-01-19T03:58:46.693Z,88.51
2023-01-19T04:01:14.920Z,89.16
2023-01-19T04:03:42.462Z,89.51
2023-01-19T04:06:10.232Z,88.86
2023-01-19T04:08:37.031Z,89.83
2023-01-19T04:11:03.539Z,89.93
2023-01-19T04:13:30.536Z,89.84
2023-01-19T04:16:05.155Z,90.00
2023-01-19T04:18:34.639Z,89.54
2023-01-19T04:21:06.164Z,89.53
2023-01-19T04:23:33.524Z,88.99
2023-01-19T04:26:05.603Z,89.08
2023-01-19T04:28:33.158Z,89.71
2023-01-19T04:30:59.596Z,89.69
2023-01-19T04:33:27.282Z,89.14
2023-01-19T04:35:55.201Z,89.36
2023-01-19T04:38:23.001Z,88.48
2023-01-19T04:40:50.458Z,88.53
2023-01-19T04:43:17.223Z,88.70
2023-01-19T04:45:46.621Z,88.63
2023-01-19T04:48:14.077Z,87.86
2023-01-19T04:50:41.931Z,88.01
2023-01-19T04:53:08.846Z,88.41
2023-01-19T04:55:36.818Z,88.25
2023-01-19T04:58:03.318Z,88.68
2023-01-19T05:00:29.940Z,88.59
2023-01-19T05:02:56.354Z,88.20
2023-01-19T05:05:22.866Z,88.12
2023-01-19T05:07:49.296Z,88.25
2023-01-19T05:10:16.007Z,88.85
2023-01-19T05:12:42.592Z,89.37
2023-01-19T05:15:10.150Z,89.89
2023-01-19T05:17:37.035Z,89.78
2023-01-19T05:20:04.553Z,89.82
2023-01-19T05:22:31.316Z,89.62
2023-01-19T05:24:58.334Z,88.40
2023-01-19T05:27:24.704Z,87.99
2023-01-19T05:29:51.128Z,88.52
2023-01-19T05:32:17.588Z,89.38
2023-01-19T05:34:44.174Z,89.91
2023-01-19T05:37:10.999Z,90.28
2023-01-19T05:39:37.421Z,89.92
2023-01-19T05:42:04.236Z,89.85
2023-01-19T05:44:30.723Z,90.15
2023-01-19T05:46:57.212Z,90.77
2023-01-19T05:49:23.702Z,90.65
2023-01-19T05:51:50.133Z,90.45
2023-01-19T05:54:16.770Z,89.98
2023-01-19T05:56:43.772Z,89.82
2023-01-19T05:59:10.566Z,90.36
2023-01-19T06:01:39.856Z,90.41
2023-01-19T06:04:06.614Z,90.85
2023-01-19T06:06:33.067Z,90.93
2023-01-19T06:08:59.585Z,91.13
2023-01-19T06:11:26.234Z,90.38
2023-01-19T06:13:52.951Z,90.30
2023-01-19T06:16:19.568Z,89.87
2023-01-19T06:18:46.161Z,89.17
2023-01-19T06:21:14.219Z,89.20
2023-01-19T06:23:40.989Z,88.54
2023-01-19T06:26:07.540Z,88.99
2023-01-19T06:28:34.510Z,88.59
2023-01-19T06:31:01.084Z,88.76
2023-01-19T06:33:28.752Z,88.79
2023-01-19T06:35:56.209Z,88.93
2023-01-19T06:38:23.076Z,88.95
2023-01-19T06:40:55.738Z,89.00
2023-01-19T06:43:22.523Z,88.42
2023-01-19T06:45:50.088Z,87.86
2023-01-19T06:48:17.329Z,88.35
2023-01-19T06:50:47.594Z,88.88
2023-01-19T06:53:16.618Z,88.54
2023-01-19T06:55:44.214Z,88.38
2023-01-19T06:58:11.975Z,88.34
2023-01-19T07:00:38.674Z,87.79
2023-01-19T07:03:08.383Z,87.82
2023-01-19T07:05:36.200Z,87.51
2023-01-19T07:08:03.940Z,87.86
2023-01-19T07:11:25.071Z,87.81
2023-01-19T07:13:17.078Z,87.57
2023-01-19T07:15:43.725Z,88.05
2023-01-19T07:18:10.285Z,87.56
2023-01-19T07:20:40.563Z,87.16
2023-01-19T07:23:07.004Z,86.68
2023-01-19T07:25:33.496Z,86.25
2023-01-19T07:28:00.291Z,85.42
2023-01-19T07:30:27.037Z,85.31
2023-01-19T07:32:58.237Z,83.97
2023-01-19T07:35:25.451Z,84.11
2023-01-19T07:37:51.927Z,83.30
2023-01-19T07:40:18.476Z,84.01
2023-01-19T07:42:49.135Z,83.78
2023-01-19T07:45:17.328Z,83.50
2023-01-19T07:47:48.886Z,83.35
2023-01-19T07:50:17.083Z,83.84
2023-01-19T07:52:43.686Z,84.21
2023-01-19T07:55:10.341Z,82.93
2023-01-19T07:57:36.794Z,81.95
2023-01-19T08:00:05.043Z,82.39
2023-01-19T08:02:33.943Z,81.95
2023-01-19T08:05:00.349Z,81.17
2023-01-19T08:07:26.857Z,80.48
2023-01-19T08:09:53.380Z,78.67
2023-01-19T08:12:19.972Z,79.88
2023-01-19T08:14:46.500Z,80.64
2023-01-19T08:17:13.858Z,80.17
2023-01-19T08:19:41.681Z,80.84
2023-01-19T08:22:08.208Z,78.10
2023-01-19T08:24:34.673Z,78.10
2023-01-19T08:27:03.536Z,77.23
2023-01-19T08:29:33.710Z,77.21
2023-01-19T08:32:02.610Z,77.08
2023-01-19T08:34:32.895Z,76.59
2023-01-19T08:36:59.569Z,75.76
2023-01-19T08:39:27.441Z,75.66
2023-01-19T08:41:54.123Z,74.01
2023-01-19T08:44:20.709Z,74.37
2023-01-19T08:46:47.547Z,74.86
2023-01-19T08:49:14.168Z,75.78
2023-01-19T08:51:40.671Z,77.67
2023-01-19T08:54:07.139Z,78.18
2023-01-19T08:56:33.591Z,78.11
2023-01-19T08:59:09.298Z,78.47
2023-01-19T09:01:37.462Z,78.82
2023-01-19T09:04:04.136Z,78.12
2023-01-19T09:06:30.735Z,78.16
2023-01-19T09:08:57.651Z,78.62
2023-01-19T09:11:24.225Z,78.95
2023-01-19T09:13:50.882Z,78.25
2023-01-19T09:16:17.581Z,78.68
2023-01-19T09:18:46.007Z,78.81
2023-01-19T09:21:13.850Z,79.33
2023-01-19T09:23:40.526Z,79.36
2023-01-19T09:26:07.185Z,79.72
2023-01-19T09:28:33.863Z,80.32
2023-01-19T09:31:05.341Z,79.24
2023-01-19T09:33:31.952Z,79.31
2023-01-19T09:35:58.912Z,78.84
2023-01-19T09:38:26.886Z,79.36
2023-01-19T09:40:55.496Z,79.93
2023-01-19T09:43:40.955Z,81.56
2023-01-19T09:46:18.951Z,82.98
2023-01-19T09:48:53.775Z,84.50
2023-01-19T09:51:23.800Z,85.96
2023-01-19T09:54:00.032Z,85.58
2023-01-19T09:56:29.179Z,84.92
2023-01-19T09:58:55.627Z,83.91
2023-01-19T10:01:37.331Z,83.24
2023-01-19T10:04:20.331Z,84.10
2023-01-19T10:06:48.617Z,83.54
2023-01-19T10:09:28.305Z,84.01
2023-01-19T10:12:23.265Z,84.29
2023-01-19T10:15:01.573Z,85.75
2023-01-19T10:17:49.719Z,85.27
2023-01-19T10:20:42.965Z,84.21
2023-01-19T10:23:41.766Z,85.12
2023-01-19T10:26:23.011Z,83.79
2023-01-19T10:28:52.976Z,84.63
2023-01-19T10:31:23.212Z,84.47
2023-01-19T10:33:50.809Z,85.44
2023-01-19T10:36:20.737Z,85.18
2023-01-19T10:38:48.005Z,85.59
2023-01-19T10:41:19.395Z,84.84
2023-01-19T10:43:47.469Z,85.76
2023-01-19T10:46:28.901Z,86.37
2023-01-19T10:48:56.031Z,84.61
2023-01-19T10:51:23.285Z,83.78
2023-01-19T10:53:56.175Z,83.73
2023-01-19T10:56:30.596Z,83.17
2023-01-19T10:58:59.631Z,83.72
2023-01-19T11:01:28.276Z,83.57
2023-01-19T11:03:57.054Z,83.06
2023-01-19T11:06:29.161Z,82.43
2023-01-19T11:09:16.490Z,82.28
2023-01-19T11:11:51.652Z,81.89
2023-01-19T11:14:21.945Z,81.00
2023-01-19T11:16:51.957Z,79.54
2023-01-19T11:19:28.018Z,79.94
2023-01-19T11:22:10.613Z,80.24
2023-01-19T11:24:38.684Z,78.96
2023-01-19T11:27:05.269Z,79.32
2023-01-19T11:29:32.231Z,78.38
2023-01-19T11:32:12.188Z,81.21
2023-01-19T11:34:39.174Z,80.74
2023-01-19T11:37:27.120Z,83.15
2023-01-19T11:39:59.413Z,83.26
2023-01-19T11:42:29.464Z,83.48
2023-01-19T11:45:05.263Z,84.75
2023-01-19T11:47:44.882Z,83.54
2023-01-19T11:50:31.843Z,83.18
2023-01-19T11:53:29.181Z,85.46
2023-01-19T11:55:59.810Z,87.36
2023-01-19T11:58:27.156Z,87.12
2023-01-19T12:01:00.373Z,86.43
2023-01-19T12:03:47.410Z,85.92
2023-01-19T12:06:25.472Z,87.12
2023-01-19T12:08:59.534Z,86.51
2023-01-19T12:11:31.634Z,86.30
2023-01-19T12:13:59.893Z,85.68
2023-01-19T12:16:32.838Z,85.35
2023-01-19T12:19:16.718Z,85.49
2023-01-19T12:21:48.137Z,86.73
2023-01-19T12:24:28.378Z,87.00
2023-01-19T12:27:00.837Z,86.20
2023-01-19T12:29:34.521Z,86.09
2023-01-19T12:32:13.153Z,85.38
2023-01-19T12:34:43.815Z,85.16
2023-01-19T12:37:35.954Z,84.65
2023-01-19T12:40:17.647Z,85.64
2023-01-19T12:42:47.048Z,86.04
2023-01-19T12:45:16.771Z,85.69
2023-01-19T12:47:56.344Z,84.12
2023-01-19T12:50:25.972Z,85.04
2023-01-19T12:52:58.700Z,85.41
2023-01-19T12:55:33.531Z,86.69
2023-01-19T12:58:34.528Z,87.18
2023-01-19T13:01:19.794Z,88.45
2023-01-19T13:04:09.578Z,88.10
2023-01-19T13:06:48.234Z,86.32
2023-01-19T13:09:31.856Z,85.28
2023-01-19T13:12:13.597Z,85.06
2023-01-19T13:14:42.235Z,83.99
2023-01-19T13:17:33.510Z,83.40
2023-01-19T13:20:05.158Z,85.34
2023-01-19T13:22:50.023Z,85.30
2023-01-19T13:25:33.777Z,85.10
2023-01-19T13:28:01.172Z,86.06
2023-01-19T13:30:29.369Z,85.03
2023-01-19T13:33:03.383Z,84.61
2023-01-19T13:35:29.995Z,83.63
2023-01-19T13:37:58.907Z,83.05
2023-01-19T13:40:33.307Z,81.76
2023-01-19T13:43:01.110Z,82.20
2023-01-19T13:45:34.061Z,84.29
2023-01-19T13:48:04.729Z,83.51
2023-01-19T13:50:34.161Z,83.19
2023-01-19T13:53:01.414Z,86.47
2023-01-19T13:55:30.364Z,86.72
2023-01-19T13:57:57.678Z,86.23
2023-01-19T14:00:26.994Z,85.74
2023-01-19T14:02:55.301Z,85.93
2023-01-19T14:05:36.014Z,87.00
2023-01-19T14:08:23.093Z,85.34
2023-01-19T14:10:52.358Z,85.13
2023-01-19T14:13:29.487Z,85.09
2023-01-19T14:15:59.882Z,85.13
2023-01-19T14:18:30.104Z,85.75
2023-01-19T14:20:59.670Z,86.77
2023-01-19T14:23:36.308Z,86.51
2023-01-19T14:26:02.833Z,85.25
2023-01-19T14:28:35.331Z,84.86
2023-01-19T14:31:17.402Z,85.75
2023-01-19T14:33:46.325Z,85.15
2023-01-19T14:36:42.010Z,84.09
2023-01-19T14:39:21.779Z,84.11
2023-01-19T14:41:52.650Z,82.94
2023-01-19T14:44:34.131Z,84.86
2023-01-19T14:47:01.525Z,86.26
2023-01-19T14:49:35.422Z,85.57
2023-01-19T14:52:06.330Z,84.05
2023-01-19T14:54:40.396Z,82.25
2023-01-19T14:57:12.519Z,81.93
2023-01-19T14:59:39.130Z,85.07
2023-01-19T15:02:05.977Z,85.31
2023-01-19T15:04:32.545Z,84.42
2023-01-19T15:06:58.950Z,83.05
2023-01-19T15:09:25.552Z,82.78
2023-01-19T15:11:52.634Z,83.14
2023-01-19T15:14:21.136Z,84.13
2023-01-19T15:16:48.061Z,83.44
2023-01-19T15:19:16.976Z,83.66
2023-01-19T15:21:46.283Z,82.39
2023-01-19T15:24:13.739Z,82.33
2023-01-19T15:26:42.627Z,81.49
2023-01-19T15:29:25.286Z,81.77
2023-01-19T15:31:52.518Z,81.37
2023-01-19T15:34:19.015Z,81.58
2023-01-19T15:36:45.523Z,81.73
2023-01-19T15:39:11.942Z,81.02
2023-01-19T15:41:39.785Z,80.91
2023-01-19T15:44:10.044Z,81.27
2023-01-19T15:46:37.168Z,81.35
2023-01-19T15:49:05.663Z,81.53
2023-01-19T15:51:32.869Z,81.01
2023-01-19T15:53:59.380Z,81.32
2023-01-19T15:56:28.783Z,81.50
2023-01-19T15:58:58.154Z,81.58
2023-01-19T16:01:34.677Z,82.89
2023-01-19T16:04:03.636Z,82.67
2023-01-19T16:06:31.263Z,83.19
2023-01-19T16:09:01.848Z,82.49
2023-01-19T16:11:31.196Z,81.99
2023-01-19T16:13:58.032Z,80.97
2023-01-19T16:16:25.848Z,80.43
2023-01-19T16:18:52.652Z,80.24
2023-01-19T16:21:19.135Z,79.73
2023-01-19T16:23:46.172Z,80.56
2023-01-19T16:26:29.924Z,79.22
2023-01-19T16:28:58.320Z,80.62
2023-01-19T16:31:25.124Z,80.49
2023-01-19T16:33:54.445Z,80.76
2023-01-19T16:36:24.397Z,81.71
2023-01-19T16:38:51.104Z,82.65
2023-01-19T16:41:17.999Z,83.81
2023-01-19T16:43:44.815Z,83.43
2023-01-19T16:46:24.247Z,83.52
2023-01-19T16:48:51.650Z,83.10
2023-01-19T16:51:19.064Z,82.77
2023-01-19T16:53:45.942Z,82.94
2023-01-19T16:56:14.778Z,82.59
2023-01-19T16:58:41.960Z,82.33
2023-01-19T17:01:19.529Z,82.42
2023-01-19T17:03:46.505Z,82.30
2023-01-19T17:06:18.098Z,82.63
2023-01-19T17:08:45.105Z,82.53
2023-01-19T17:11:22.946Z,82.70
2023-01-19T17:13:55.187Z,83.12
2023-01-19T17:16:24.194Z,82.88
2023-01-19T17:18:50.964Z,83.39
2023-01-19T17:21:18.061Z,83.19
2023-01-19T17:23:48.960Z,83.33
2023-01-19T17:26:16.597Z,82.96
2023-01-19T17:28:43.565Z,82.56
2023-01-19T17:31:15.966Z,83.13
2023-01-19T17:33:47.714Z,83.65
2023-01-19T17:36:16.778Z,83.40
2023-01-19T17:38:43.362Z,83.56
2023-01-19T17:41:17.181Z,83.50
2023-01-19T17:43:44.286Z,84.01
2023-01-19T17:46:11.544Z,83.85
2023-01-19T17:48:38.472Z,83.50
2023-01-19T17:51:10.843Z,83.07
2023-01-19T17:53:38.757Z,83.59
2023-01-19T17:56:08.128Z,83.55
2023-01-19T17:58:35.029Z,84.92
2023-01-19T18:01:26.450Z,84.50
2023-01-19T18:03:53.588Z,84.88
2023-01-19T18:06:21.251Z,85.03
2023-01-19T18:08:48.838Z,84.84
2023-01-19T18:11:17.771Z,84.22
2023-01-19T18:13:46.223Z,83.52
2023-01-19T18:16:15.918Z,83.25
2023-01-19T18:18:44.109Z,82.50
2023-01-19T18:21:13.532Z,82.27
2023-01-19T18:23:40.784Z,82.68
2023-01-19T18:26:09.940Z,83.52
2023-01-19T18:28:36.732Z,84.11
2023-01-19T18:31:09.832Z,86.55
2023-01-19T18:33:37.194Z,88.37
2023-01-19T18:36:04.349Z,88.29
2023-01-19T18:38:31.298Z,87.77
2023-01-19T18:41:01.984Z,86.79
2023-01-19T18:43:28.490Z,88.64
2023-01-19T18:45:54.964Z,88.02
2023-01-19T18:48:21.526Z,88.24
2023-01-19T18:50:48.119Z,88.50
2023-01-19T18:53:14.591Z,88.38
2023-01-19T18:55:58.351Z,88.69
2023-01-19T18:58:28.422Z,89.61
2023-01-19T19:00:56.185Z,89.24
2023-01-19T19:03:23.232Z,89.24
2023-01-19T19:05:49.756Z,88.47
2023-01-19T19:08:16.363Z,89.19
2023-01-19T19:10:43.904Z,88.27
2023-01-19T19:13:15.057Z,87.72
2023-01-19T19:15:41.646Z,87.68
2023-01-19T19:18:08.924Z,87.29
2023-01-19T19:20:42.088Z,87.14
2023-01-19T19:23:08.635Z,87.83
2023-01-19T19:25:35.147Z,87.97
2023-01-19T19:28:01.616Z,88.06
2023-01-19T19:30:28.268Z,87.55
2023-01-19T19:32:59.848Z,87.85
2023-01-19T19:35:26.367Z,87.77
2023-01-19T19:37:57.470Z,88.03
2023-01-19T19:40:25.595Z,87.64
2023-01-19T19:42:52.071Z,87.66
2023-01-19T19:45:19.369Z,87.66
2023-01-19T19:47:45.917Z,87.10
2023-01-19T19:50:12.677Z,87.73
2023-01-19T19:52:40.510Z,87.74
2023-01-19T19:55:09.836Z,88.45
2023-01-19T19:57:36.496Z,88.74
2023-01-19T20:00:05.172Z,89.06
2023-01-19T20:02:32.041Z,88.28
2023-01-19T20:04:58.712Z,88.86
2023-01-19T20:07:25.265Z,88.27
2023-01-19T20:09:53.379Z,88.05
2023-01-19T20:12:19.909Z,88.12
2023-01-19T20:14:46.506Z,88.38
2023-01-19T20:17:13.080Z,88.74
2023-01-19T20:19:39.472Z,88.58
2023-01-19T20:22:06.887Z,88.87
2023-01-19T20:24:33.316Z,89.79
2023-01-19T20:26:59.819Z,89.51
2023-01-19T20:29:26.266Z,89.47
2023-01-19T20:31:55.309Z,89.36
2023-01-19T20:34:26.639Z,90.06
2023-01-19T20:36:53.955Z,90.48
2023-01-19T20:39:22.445Z,90.00
2023-01-19T20:41:51.202Z,89.25
2023-01-19T20:44:23.433Z,89.28
2023-01-19T20:46:50.464Z,89.40
2023-01-19T20:49:17.143Z,89.27
2023-01-19T20:51:45.236Z,88.81
2023-01-19T20:54:13.956Z,89.14
2023-01-19T20:56:41.504Z,87.52
2023-01-19T20:59:09.167Z,87.06
2023-01-19T21:01:36.192Z,87.18
2023-01-19T21:04:02.785Z,87.45
2023-01-19T21:06:29.406Z,88.91
2023-01-19T21:08:57.468Z,89.12
2023-01-19T21:11:25.627Z,88.88
2023-01-19T21:13:55.707Z,89.19
2023-01-19T21:16:24.390Z,89.22
2023-01-19T21:18:51.029Z,89.39
2023-01-19T21:21:29.386Z,90.04
2023-01-19T21:23:57.231Z,90.34
2023-01-19T21:26:23.804Z,90.42
2023-01-19T21:28:50.520Z,90.29
2023-01-19T21:31:17.113Z,90.43
2023-01-19T21:33:43.905Z,90.14
2023-01-19T21:36:11.229Z,90.72
2023-01-19T21:38:38.807Z,90.61
2023-01-19T21:41:12.463Z,90.41
2023-01-19T21:43:41.701Z,90.27
2023-01-19T21:46:09.187Z,89.83
2023-01-19T21:48:35.650Z,90.05
2023-01-19T21:51:02.222Z,89.66
2023-01-19T21:53:28.760Z,89.30
2023-01-19T21:55:55.204Z,89.76
2023-01-19T21:58:23.036Z,89.38
2023-01-19T22:00:49.949Z,89.46
2023-01-19T22:03:17.184Z,89.61
2023-01-19T22:05:43.613Z,90.15
2023-01-19T22:08:10.096Z,89.41
2023-01-19T22:10:39.657Z,90.07
2023-01-19T22:13:07.657Z,90.19
2023-01-19T22:15:34.176Z,90.51
2023-01-19T22:18:00.647Z,90.12
2023-01-19T22:20:27.270Z,90.55
2023-01-19T22:22:53.697Z,90.52
2023-01-19T22:25:23.840Z,90.80
2023-01-19T22:27:50.273Z,90.64
2023-01-19T22:30:17.108Z,91.56
2023-01-19T22:32:43.617Z,91.47
2023-01-19T22:35:10.195Z,92.36
2023-01-19T22:37:37.841Z,92.18
2023-01-19T22:40:05.003Z,93.04
2023-01-19T22:42:31.485Z,93.09
2023-01-19T22:44:57.958Z,92.78
2023-01-19T22:47:24.527Z,92.86
2023-01-19T22:49:51.061Z,93.11
2023-01-19T22:52:17.467Z,93.24
2023-01-19T22:54:43.863Z,93.13
2023-01-19T22:57:11.835Z,92.35
2023-01-19T22:59:38.303Z,92.37
2023-01-19T23:02:04.830Z,91.42
2023-01-19T23:04:31.446Z,91.14
2023-01-19T23:06:57.878Z,91.91
2023-01-19T23:09:24.350Z,91.93
2023-01-19T23:11:51.297Z,92.72
2023-01-19T23:14:20.863Z,93.93
2023-01-19T23:16:47.812Z,93.51
2023-01-19T23:19:17.133Z,93.39
2023-01-19T23:21:44.957Z,93.16
2023-01-19T23:24:11.856Z,93.04
2023-01-19T23:26:38.860Z,93.51
2023-01-19T23:29:08.106Z,93.56
2023-01-19T23:31:36.581Z,93.04
2023-01-19T23:34:07.065Z,92.94
2023-01-19T23:36:35.243Z,93.82
2023-01-19T23:39:13.327Z,93.47
2023-01-19T23:41:39.750Z,93.07
2023-01-19T23:44:06.536Z,93.22
2023-01-19T23:46:33.199Z,92.35
2023-01-19T23:48:59.672Z,91.68
2023-01-19T23:51:29.156Z,91.23
2023-01-19T23:53:56.821Z,91.69
2023-01-19T23:56:28.642Z,92.19
2023-01-19T23:58:59.547Z,92.11
